Time;durP1;ratioP1;P1;durP2;ratioP2;P2;SDS_P1;SDS_P2;PMS_P1;PMS_P2;Temp;Humidity;BMP_temperature;BMP_pressure;BME280_temperature;BME280_humidity;BME280_pressure;Samples;Min_cycle;Max_cycle;Signal;HPM_P1;HPM_P2
2021/06/01 00:00:20;;;;;;;7.72;3.80;;;;;;;18.25;35.14;101775.19;5054213;28;20491;-50
2021/06/01 00:02:48;;;;;;;6.07;2.63;;;;;;;18.26;35.22;101779.59;5054039;28;20053;-50
2021/06/01 00:05:16;;;;;;;5.47;2.10;;;;;;;18.24;34.30;101773.53;5053966;28;20045;-50
2021/06/01 00:07:44;;;;;;;3.78;2.47;;;;;;;18.19;35.19;101781.91;5054219;28;20073;-49
2021/06/01 00:10:13;;;;;;;2.75;2.17;;;;;;;18.18;35.21;101774.72;5053558;28;20045;-52
2021/06/01 00:12:41;;;;;;;6.78;3.20;;;;;;;18.20;35.33;101782.72;5052685;28;20110;-50
2021/06/01 00:15:09;;;;;;;4.63;2.28;;;;;;;18.24;34.91;101775.50;5048804;28;20484;-49
2021/06/01 00:17:37;;;;;;;5.38;2.45;;;;;;;18.22;35.55;101780.47;5049324;28;20087;-52
2021/06/01 00:20:07;;;;;;;4.15;2.40;;;;;;;18.19;34.94;101781.09;5053276;28;20036;-50
2021/06/01 00:22:35;;;;;;;4.30;2.83;;;;;;;18.17;35.60;101778.59;5053603;28;20041;-52
2021/06/01 00:25:04;;;;;;;4.53;2.30;;;;;;;18.19;35.34;101772.81;5053548;28;20049;-51
2021/06/01 00:27:31;;;;;;;2.35;2.10;;;;;;;18.21;35.54;101774.16;5053158;28;20076;-52
2021/06/01 00:29:59;;;;;;;3.58;2.50;;;;;;;18.23;35.55;101774.69;5049243;28;20046;-50
2021/06/01 00:32:27;;;;;;;4.10;2.63;;;;;;;18.20;35.25;101766.97;5047949;28;20137;-47
2021/06/01 00:34:54;;;;;;;5.10;2.13;;;;;;;18.19;35.55;101764.53;5053510;28;20396;-53
2021/06/01 00:37:22;;;;;;;4.60;2.40;;;;;;;18.18;35.56;101773.91;5053411;28;20064;-51
2021/06/01 00:39:50;;;;;;;5.20;2.42;;;;;;;18.16;35.64;101776.97;5052593;28;20060;-50
2021/06/01 00:42:17;;;;;;;3.10;2.42;;;;;;;18.14;36.21;101773.69;5053569;28;20049;-50
2021/06/01 00:44:45;;;;;;;6.15;2.33;;;;;;;18.14;36.08;101773.69;5053040;28;20063;-50
2021/06/01 00:47:13;;;;;;;2.20;1.98;;;;;;;18.11;35.87;101774.25;5053408;28;20072;-50
2021/06/01 00:49:40;;;;;;;4.75;2.38;;;;;;;18.02;35.87;101776.06;5053455;28;20044;-50
2021/06/01 00:52:08;;;;;;;4.28;2.35;;;;;;;17.99;36.96;101773.88;5053524;28;20098;-51
2021/06/01 00:54:37;;;;;;;3.55;2.08;;;;;;;17.98;36.20;101766.72;5052976;28;20056;-52
2021/06/01 00:57:06;;;;;;;4.32;2.50;;;;;;;17.94;37.28;101768.41;5053620;28;20077;-53
2021/06/01 00:59:34;;;;;;;2.95;2.22;;;;;;;17.95;36.82;101772.84;5053531;28;20045;-52
2021/06/01 01:02:04;;;;;;;4.18;2.45;;;;;;;17.93;36.86;101775.88;5053108;28;20052;-52
2021/06/01 01:04:33;;;;;;;4.15;2.53;;;;;;;17.90;37.26;101778.41;5052349;28;20045;-53
2021/06/01 01:07:21;;;;;;;6.07;2.40;;;;;;;17.88;36.88;101776.75;5053112;28;20044;-48
2021/06/01 01:09:50;;;;;;;4.78;2.42;;;;;;;17.83;37.47;101770.50;5066639;28;20049;-49
2021/06/01 01:12:23;;;;;;;6.25;2.40;;;;;;;17.80;37.40;101769.16;5068276;28;20045;-52
2021/06/01 01:14:55;;;;;;;3.45;2.10;;;;;;;17.75;37.39;101771.94;5068334;28;20057;-49
2021/06/01 01:17:25;;;;;;;4.32;2.50;;;;;;;17.68;37.74;101772.28;5052647;28;20045;-49
2021/06/01 01:20:15;;;;;;;5.63;2.58;;;;;;;17.65;37.83;101769.28;5048041;28;20455;-49
2021/06/01 01:22:44;;;;;;;3.03;2.22;;;;;;;17.64;37.81;101778.66;5039465;28;20064;-47
2021/06/01 01:25:31;;;;;;;5.07;2.20;;;;;;;17.59;38.24;101768.50;5067915;28;20041;-49
2021/06/01 01:28:21;;;;;;;3.83;2.67;;;;;;;17.51;38.51;101771.06;5040881;28;20094;-50
2021/06/01 01:30:52;;;;;;;3.50;2.17;;;;;;;17.45;38.65;101776.66;5051737;28;20507;-50
2021/06/01 01:33:37;;;;;;;4.90;2.03;;;;;;;17.45;39.30;101778.59;5067744;28;20037;-48
2021/06/01 01:36:07;;;;;;;3.33;2.35;;;;;;;17.42;39.57;101768.97;5052378;28;20041;-50
2021/06/01 01:38:35;;;;;;;10.00;2.90;;;;;;;17.42;39.46;101773.66;5067296;28;20049;-49
2021/06/01 01:41:09;;;;;;;5.13;2.50;;;;;;;17.43;39.63;101765.09;5067371;28;20049;-49
2021/06/01 01:43:38;;;;;;;5.40;2.75;;;;;;;17.45;39.12;101768.38;5067804;28;20071;-48
2021/06/01 01:46:12;;;;;;;6.47;2.65;;;;;;;17.40;39.62;101773.13;5067633;28;20040;-51
2021/06/01 01:51:40;;;;;;;3.15;2.40;;;;;;;17.35;39.65;101762.97;5065288;28;20052;-47
2021/06/01 01:54:19;;;;;;;5.38;2.58;;;;;;;17.32;39.86;101763.56;5067295;28;20053;-50
2021/06/01 01:56:51;;;;;;;4.03;2.60;;;;;;;17.27;39.75;101749.84;5035103;28;20077;-50
2021/06/01 01:59:21;;;;;;;5.57;2.80;;;;;;;17.29;39.47;101753.13;5047348;28;20103;-48
2021/06/01 02:01:50;;;;;;;4.05;2.30;;;;;;;17.30;40.09;101754.78;5038848;28;20556;-47
2021/06/01 02:04:23;;;;;;;5.47;2.90;;;;;;;17.32;39.60;101754.47;5052166;28;20090;-47
2021/06/01 02:06:51;;;;;;;9.90;3.03;;;;;;;17.29;39.72;101763.31;5037963;28;20037;-50
2021/06/01 02:09:20;;;;;;;6.28;3.30;;;;;;;17.24;39.75;101762.28;5052171;28;20075;-52
2021/06/01 02:11:48;;;;;;;4.45;2.58;;;;;;;17.22;39.79;101760.91;5051691;28;20037;-49
2021/06/01 02:14:17;;;;;;;7.90;2.78;;;;;;;17.16;39.85;101754.63;5052129;28;20052;-50
2021/06/01 02:16:44;;;;;;;5.80;2.72;;;;;;;17.10;40.26;101755.78;5052030;28;20033;-49
2021/06/01 02:19:15;;;;;;;5.97;2.60;;;;;;;17.09;40.71;101764.34;5052230;28;20533;-47
2021/06/01 02:22:25;;;;;;;6.32;3.00;;;;;;;17.09;40.64;101759.66;5047168;28;20076;-47
2021/06/01 02:25:24;;;;;;;7.35;2.90;;;;;;;16.97;40.67;101757.25;5042616;28;20048;-49
2021/06/01 02:28:22;;;;;;;7.45;3.00;;;;;;;16.93;41.40;101761.72;5039361;28;20079;-50
2021/06/01 02:30:55;;;;;;;5.15;3.10;;;;;;;16.86;41.20;101752.97;5051558;28;20041;-49
2021/06/01 02:33:24;;;;;;;8.23;3.63;;;;;;;16.81;41.21;101766.75;5050470;28;20048;-50
2021/06/01 02:35:52;;;;;;;6.85;3.20;;;;;;;16.80;41.37;101759.59;5066856;28;20125;-52
2021/06/01 02:38:20;;;;;;;5.72;3.05;;;;;;;16.77;41.45;101762.91;5067492;28;20094;-49
2021/06/01 02:40:49;;;;;;;7.25;2.90;;;;;;;16.73;41.71;101768.16;5051452;28;20084;-48
2021/06/01 02:43:17;;;;;;;7.88;3.25;;;;;;;16.71;41.62;101761.28;5054239;28;20053;-49
2021/06/01 02:45:45;;;;;;;7.55;2.85;;;;;;;16.72;41.68;101769.28;5071068;28;20053;-52
2021/06/01 02:48:15;;;;;;;7.25;3.13;;;;;;;16.68;42.18;101764.63;5071589;28;20041;-53
2021/06/01 02:50:44;;;;;;;8.35;3.22;;;;;;;16.61;42.14;101759.44;5070912;28;20115;-52
2021/06/01 02:53:13;;;;;;;8.57;3.33;;;;;;;16.52;42.65;101761.97;5070740;28;20045;-50
2021/06/01 02:55:41;;;;;;;6.70;3.15;;;;;;;16.45;42.35;101763.38;5070929;28;20103;-50
2021/06/01 02:58:11;;;;;;;9.35;3.60;;;;;;;16.39;42.74;101757.94;5070679;28;20033;-50
2021/06/01 03:00:40;;;;;;;9.57;3.65;;;;;;;16.34;42.93;101759.91;5055266;28;20087;-48
2021/06/01 03:03:11;;;;;;;4.20;2.45;;;;;;;16.36;43.28;101754.94;5055013;28;20087;-49
2021/06/01 03:05:40;;;;;;;7.32;3.10;;;;;;;16.40;43.03;101759.59;5055105;28;20045;-48
2021/06/01 03:08:28;;;;;;;6.18;3.10;;;;;;;16.45;43.00;101764.25;5055119;28;20055;-51
2021/06/01 03:10:58;;;;;;;5.50;3.10;;;;;;;16.42;43.26;101756.53;5054983;28;20103;-50
2021/06/01 03:13:26;;;;;;;7.07;3.20;;;;;;;16.42;43.00;101767.53;5054696;28;20110;-50
2021/06/01 03:15:54;;;;;;;7.32;3.50;;;;;;;16.43;43.08;101758.19;5054906;28;20045;-50
2021/06/01 03:18:22;;;;;;;6.82;3.00;;;;;;;16.41;43.50;101760.41;5055058;28;20045;-51
2021/06/01 03:20:50;;;;;;;8.10;3.80;;;;;;;16.35;43.73;101753.28;5054608;28;20033;-49
2021/06/01 03:23:18;;;;;;;6.10;3.30;;;;;;;16.30;43.48;101764.31;5055044;28;20041;-49
2021/06/01 03:25:47;;;;;;;12.20;3.38;;;;;;;16.30;43.74;101754.13;5054732;28;20095;-50
2021/06/01 03:28:15;;;;;;;8.45;3.38;;;;;;;16.32;43.90;101765.66;5054671;28;20041;-49
2021/06/01 03:30:42;;;;;;;8.02;3.33;;;;;;;16.29;43.89;101762.69;5054913;28;20561;-50
2021/06/01 03:33:10;;;;;;;7.38;3.30;;;;;;;16.25;44.19;101761.59;5054760;28;20052;-50
2021/06/01 03:35:38;;;;;;;5.90;3.05;;;;;;;16.22;44.01;101760.22;5054285;28;20076;-52
2021/06/01 03:38:06;;;;;;;5.82;3.33;;;;;;;16.18;44.10;101759.97;5053447;28;20037;-50
2021/06/01 03:40:33;;;;;;;10.25;3.35;;;;;;;16.18;44.33;101765.47;5054315;28;20045;-50
2021/06/01 03:43:01;;;;;;;7.03;3.45;;;;;;;16.16;44.44;101761.34;5054372;28;20102;-50
2021/06/01 03:45:29;;;;;;;10.52;3.75;;;;;;;16.10;44.62;101768.00;5054616;28;20048;-50
2021/06/01 03:47:57;;;;;;;10.13;3.58;;;;;;;16.06;44.42;101764.97;5054152;28;20044;-51
2021/06/01 03:50:25;;;;;;;8.18;3.35;;;;;;;16.02;44.71;101761.16;5054224;28;20111;-50
2021/06/01 03:52:52;;;;;;;10.68;3.47;;;;;;;16.01;45.09;101755.94;5054210;28;20037;-49
2021/06/01 03:55:21;;;;;;;7.57;3.80;;;;;;;16.00;45.14;101760.63;5053385;28;20079;-50
2021/06/01 03:57:49;;;;;;;9.68;3.28;;;;;;;16.07;45.26;101772.13;5053824;28;20060;-51
2021/06/01 04:00:21;;;;;;;10.52;3.47;;;;;;;16.19;44.52;101775.38;5054291;28;20079;-51
2021/06/01 04:02:49;;;;;;;9.93;3.88;;;;;;;16.20;44.94;101773.44;5053927;28;20122;-51
2021/06/01 04:05:23;;;;;;;7.25;3.30;;;;;;;16.12;45.04;101769.34;5054301;28;20048;-51
2021/06/01 04:07:50;;;;;;;10.65;3.63;;;;;;;16.11;45.12;101767.69;5054175;28;20048;-50
2021/06/01 04:10:18;;;;;;;11.40;3.90;;;;;;;16.06;45.61;101762.22;5053834;28;20056;-51
2021/06/01 04:12:46;;;;;;;7.50;3.85;;;;;;;16.08;45.98;101768.25;5053992;28;20499;-53
2021/06/01 04:15:14;;;;;;;6.25;3.40;;;;;;;16.14;45.23;101764.41;5053789;28;20140;-51
2021/06/01 04:17:42;;;;;;;7.35;3.40;;;;;;;16.12;45.46;101769.34;5053497;28;20419;-49
2021/06/01 04:20:10;;;;;;;6.57;3.40;;;;;;;16.09;45.43;101764.44;5053646;28;20069;-48
2021/06/01 04:22:38;;;;;;;5.35;3.20;;;;;;;16.03;46.08;101771.03;5053771;28;20116;-51
2021/06/01 04:25:07;;;;;;;8.60;3.90;;;;;;;16.04;46.13;101772.66;5053981;28;20045;-50
2021/06/01 04:27:35;;;;;;;9.75;4.07;;;;;;;16.03;45.82;101765.53;5053660;28;20116;-50
2021/06/01 04:30:06;;;;;;;11.02;4.25;;;;;;;16.01;46.18;101766.94;5053560;28;20049;-50
2021/06/01 04:32:34;;;;;;;8.55;3.58;;;;;;;15.95;46.21;101763.38;5068499;28;20033;-50
2021/06/01 04:35:03;;;;;;;11.43;3.80;;;;;;;15.95;46.64;101757.91;5053624;28;20044;-49
2021/06/01 04:37:30;;;;;;;8.60;3.55;;;;;;;16.03;46.73;101768.28;5053059;28;20075;-52
2021/06/01 04:39:58;;;;;;;10.90;4.30;;;;;;;16.02;46.19;101768.56;5053451;28;20041;-50
2021/06/01 04:42:26;;;;;;;8.60;4.00;;;;;;;16.00;46.16;101760.63;5053157;28;20368;-51
2021/06/01 04:44:53;;;;;;;11.80;3.95;;;;;;;15.99;46.47;101756.19;5053298;28;20495;-50
2021/06/01 04:47:21;;;;;;;13.68;4.40;;;;;;;16.02;46.69;101752.06;5053206;28;20087;-49
2021/06/01 04:49:49;;;;;;;8.43;4.13;;;;;;;16.06;46.42;101750.41;5053088;28;20426;-53
2021/06/01 04:52:17;;;;;;;6.20;3.22;;;;;;;16.14;46.36;101755.34;5053389;28;20088;-51
2021/06/01 04:54:44;;;;;;;10.95;4.38;;;;;;;16.21;45.78;101757.75;5053065;28;20441;-50
2021/06/01 04:57:12;;;;;;;9.23;4.25;;;;;;;16.25;46.53;101756.91;5052991;28;20052;-50
2021/06/01 04:59:40;;;;;;;11.98;4.50;;;;;;;16.23;46.11;101747.28;5052768;28;20072;-49
2021/06/01 05:02:07;;;;;;;6.90;3.85;;;;;;;16.22;45.96;101751.16;5052419;28;20049;-47
2021/06/01 05:04:35;;;;;;;9.77;4.13;;;;;;;16.23;46.16;101752.78;5052535;28;20094;-50
2021/06/01 05:07:03;;;;;;;16.55;4.40;;;;;;;16.25;46.19;101756.91;5052795;28;20397;-50
2021/06/01 05:09:31;;;;;;;11.38;4.75;;;;;;;16.19;46.55;101764.38;5052932;28;20158;-51
2021/06/01 05:11:58;;;;;;;11.05;4.10;;;;;;;16.21;46.48;101755.00;5039049;28;20045;-52
2021/06/01 05:14:26;;;;;;;11.68;3.70;;;;;;;16.22;46.63;101767.66;5054372;28;20044;-50
2021/06/01 05:16:54;;;;;;;10.05;4.20;;;;;;;16.31;45.90;101766.78;5050838;28;20045;-52
2021/06/01 05:19:21;;;;;;;9.30;4.72;;;;;;;16.35;45.83;101758.78;5052533;28;20519;-50
2021/06/01 05:21:49;;;;;;;10.88;3.97;;;;;;;16.42;46.36;101767.53;5052854;28;20077;-51
2021/06/01 05:24:17;;;;;;;10.77;4.22;;;;;;;16.46;45.89;101757.63;5052620;28;20087;-51
2021/06/01 05:26:44;;;;;;;11.80;4.15;;;;;;;16.49;45.26;101762.53;5052793;28;20064;-50
2021/06/01 05:29:12;;;;;;;10.95;4.00;;;;;;;16.49;45.59;101762.53;5052003;28;20073;-51
2021/06/01 05:34:38;;;;;;;14.93;4.32;;;;;;;16.58;46.40;101762.78;5049668;28;20087;-50
2021/06/01 05:37:06;;;;;;;13.40;4.13;;;;;;;16.61;46.45;101754.75;5049871;28;20062;-51
2021/06/01 05:39:33;;;;;;;10.35;4.07;;;;;;;16.66;46.06;101761.34;5049690;28;20052;-50
2021/06/01 05:42:01;;;;;;;7.82;3.78;;;;;;;16.71;45.74;101758.53;5049915;28;20068;-51
2021/06/01 05:44:29;;;;;;;14.93;5.45;;;;;;;16.72;45.58;101754.69;5049112;28;20056;-50
2021/06/01 05:46:57;;;;;;;13.45;3.92;;;;;;;16.76;45.92;101755.75;5049637;28;20549;-51
2021/06/01 05:49:25;;;;;;;15.00;4.18;;;;;;;16.78;46.06;101756.28;5049582;28;20067;-48
2021/06/01 05:51:52;;;;;;;10.88;4.35;;;;;;;16.81;45.53;101762.09;5049688;28;20053;-50
2021/06/01 05:54:20;;;;;;;9.00;4.20;;;;;;;16.85;45.57;101758.75;5049439;28;20098;-50
2021/06/01 05:56:47;;;;;;;13.93;5.25;;;;;;;16.83;45.56;101756.28;5049535;28;20057;-49
2021/06/01 05:59:16;;;;;;;9.05;4.25;;;;;;;16.82;45.94;101754.66;5049040;28;20067;-49
2021/06/01 06:01:44;;;;;;;9.27;4.03;;;;;;;16.84;46.30;101755.19;5049344;28;20458;-50
2021/06/01 06:04:11;;;;;;;8.48;4.05;;;;;;;16.86;46.15;101754.88;5032468;28;20064;-50
2021/06/01 06:06:39;;;;;;;7.18;3.80;;;;;;;16.88;46.70;101753.47;5049476;28;20041;-49
2021/06/01 06:09:07;;;;;;;7.32;3.95;;;;;;;16.94;45.75;101752.34;5049485;28;20072;-49
2021/06/01 06:11:34;;;;;;;5.35;3.30;;;;;;;16.96;45.97;101747.38;5050733;28;20073;-51
2021/06/01 06:14:02;;;;;;;10.88;4.82;;;;;;;17.01;45.52;101752.00;5051085;28;20041;-52
2021/06/01 06:16:41;;;;;;;6.13;3.60;;;;;;;17.03;45.97;101749.81;5051608;28;20037;-48
2021/06/01 06:19:09;;;;;;;13.98;4.80;;;;;;;17.00;45.89;101762.22;5054248;28;20033;-52
2021/06/01 06:21:37;;;;;;;7.80;3.83;;;;;;;17.03;46.00;101745.09;5055639;28;20076;-53
2021/06/01 06:24:07;;;;;;;9.40;4.50;;;;;;;17.07;46.22;101748.09;5051340;28;20069;-53
2021/06/01 06:26:35;;;;;;;12.30;4.55;;;;;;;17.11;46.83;101756.63;5046271;28;20397;-52
2021/06/01 06:29:03;;;;;;;10.13;4.32;;;;;;;17.12;46.11;101752.72;5055437;28;20037;-49
2021/06/01 06:31:30;;;;;;;14.25;4.60;;;;;;;17.13;44.98;101754.41;5055518;28;20135;-50
2021/06/01 06:33:58;;;;;;;8.20;4.38;;;;;;;17.17;45.01;101761.78;5055498;28;20487;-49
2021/06/01 06:36:26;;;;;;;9.55;4.30;;;;;;;17.22;44.67;101752.63;5055890;28;20069;-49
2021/06/01 06:38:54;;;;;;;13.32;5.45;;;;;;;17.25;45.53;101763.09;5055568;28;20045;-49
2021/06/01 06:41:21;;;;;;;9.88;4.40;;;;;;;17.26;45.42;101750.94;5041439;28;20545;-49
2021/06/01 06:43:53;;;;;;;16.08;5.80;;;;;;;17.29;45.93;101749.53;5054954;28;20049;-52
2021/06/01 06:46:25;;;;;;;10.23;4.57;;;;;;;17.27;45.65;101752.59;5055181;28;20033;-50
2021/06/01 06:48:53;;;;;;;10.40;5.30;;;;;;;17.28;45.42;101761.69;5055612;28;20049;-50
2021/06/01 06:51:22;;;;;;;10.80;5.18;;;;;;;17.30;45.94;101752.00;5055106;28;20053;-50
2021/06/01 06:53:55;;;;;;;13.05;5.18;;;;;;;17.30;46.20;101754.78;5051003;28;20072;-51
2021/06/01 06:56:25;;;;;;;7.53;3.63;;;;;;;17.37;46.45;101748.94;5052962;28;20115;-53
2021/06/01 06:58:53;;;;;;;9.05;4.88;;;;;;;17.38;45.39;101754.13;5055461;28;20095;-51
2021/06/01 07:01:21;;;;;;;9.40;4.97;;;;;;;17.42;45.86;101752.44;5055123;28;20037;-54
2021/06/01 07:03:49;;;;;;;10.82;5.10;;;;;;;17.45;46.32;101746.34;5055656;28;20110;-53
2021/06/01 07:06:17;;;;;;;11.63;4.82;;;;;;;17.53;46.51;101746.81;5055272;28;20041;-52
2021/06/01 07:08:45;;;;;;;12.00;5.00;;;;;;;17.57;46.53;101756.97;5042592;28;20041;-53
2021/06/01 07:11:12;;;;;;;8.10;4.82;;;;;;;17.62;46.26;101745.88;5054374;28;20053;-52
2021/06/01 07:13:40;;;;;;;10.48;4.22;;;;;;;17.69;46.13;101745.53;5053235;28;20569;-50
2021/06/01 07:16:09;;;;;;;10.93;5.30;;;;;;;17.70;46.13;101747.16;5054707;28;20103;-51
2021/06/01 07:18:41;;;;;;;10.00;4.97;;;;;;;17.73;45.30;101743.03;5054548;28;20083;-50
2021/06/01 07:21:11;;;;;;;7.32;4.30;;;;;;;17.75;45.42;101746.28;5054646;28;20496;-60
2021/06/01 07:23:39;;;;;;;8.98;4.60;;;;;;;17.79;46.05;101745.41;5054895;28;20071;-50
2021/06/01 07:26:08;;;;;;;10.13;4.60;;;;;;;17.84;46.35;101744.56;5049962;28;20060;-49
2021/06/01 07:28:35;;;;;;;10.40;4.07;;;;;;;17.85;46.02;101741.50;5047045;28;20076;-49
2021/06/01 07:31:04;;;;;;;10.52;5.20;;;;;;;17.90;45.90;101739.81;5053909;28;20495;-49
2021/06/01 07:33:33;;;;;;;15.65;6.30;;;;;;;17.93;45.51;101744.72;5054743;28;20102;-49
2021/06/01 07:36:01;;;;;;;17.15;5.20;;;;;;;17.98;46.18;101744.66;5054304;28;20537;-50
2021/06/01 07:38:29;;;;;;;10.57;4.68;;;;;;;18.02;45.81;101740.22;5054510;28;20171;-51
2021/06/01 07:40:56;;;;;;;12.30;5.85;;;;;;;18.06;45.07;101741.22;5053608;28;20073;-48
2021/06/01 07:43:24;;;;;;;9.02;4.70;;;;;;;18.07;44.93;101742.91;5054509;28;20037;-46
2021/06/01 07:45:52;;;;;;;10.20;4.50;;;;;;;18.09;45.27;101737.91;5054048;28;20140;-51
2021/06/01 07:48:19;;;;;;;10.32;4.75;;;;;;;18.13;44.75;101736.19;5049682;28;20492;-48
2021/06/01 07:50:47;;;;;;;13.05;4.70;;;;;;;18.17;44.37;101740.00;5048014;28;20041;-49
2021/06/01 07:53:15;;;;;;;14.68;5.30;;;;;;;18.19;44.18;101739.69;5063463;28;20538;-50
2021/06/01 07:55:42;;;;;;;11.63;4.55;;;;;;;18.22;44.63;101737.16;5045928;28;20557;-51
2021/06/01 07:58:10;;;;;;;10.55;4.50;;;;;;;18.24;43.93;101737.69;5053778;28;20530;-49
2021/06/01 08:00:38;;;;;;;11.95;5.40;;;;;;;18.28;44.33;101730.47;5053851;28;20464;-49
2021/06/01 08:03:06;;;;;;;11.35;5.18;;;;;;;18.37;44.47;101729.78;5053828;28;20091;-47
2021/06/01 08:05:34;;;;;;;12.15;4.80;;;;;;;18.43;43.99;101725.84;5054071;28;20479;-48
2021/06/01 08:08:02;;;;;;;12.25;4.63;;;;;;;18.49;44.10;101713.59;5053821;28;20053;-50
2021/06/01 08:10:29;;;;;;;11.82;5.13;;;;;;;18.58;43.30;101720.06;5053398;28;20037;-50
2021/06/01 08:12:57;;;;;;;14.15;4.82;;;;;;;18.64;43.28;101716.13;5053513;28;20045;-49
2021/06/01 08:15:25;;;;;;;10.23;5.20;;;;;;;18.68;42.50;101717.13;5053931;28;20071;-50
2021/06/01 08:17:57;;;;;;;7.80;4.40;;;;;;;18.73;41.81;101714.28;5053536;28;20419;-50
2021/06/01 08:22:59;;;;;;;11.30;4.97;;;;;;;18.82;40.47;101706.19;5053781;28;20091;-50
2021/06/01 08:25:26;;;;;;;10.52;4.88;;;;;;;18.87;41.95;101713.56;5052991;28;20041;-50
2021/06/01 08:27:55;;;;;;;12.48;5.30;;;;;;;18.95;41.97;101710.09;5053336;28;20094;-51
2021/06/01 08:30:23;;;;;;;11.77;5.28;;;;;;;18.98;41.58;101700.38;5053168;28;20061;-49
2021/06/01 08:32:50;;;;;;;9.85;4.53;;;;;;;18.98;41.06;101709.50;5039830;28;20044;-49
2021/06/01 08:35:19;;;;;;;6.78;4.25;;;;;;;19.02;40.45;101704.19;5053636;28;20044;-48
2021/06/01 08:37:47;;;;;;;12.43;4.57;;;;;;;19.03;40.58;101705.84;5051587;28;20041;-49
2021/06/01 08:40:15;;;;;;;10.77;4.63;;;;;;;19.08;40.30;101703.78;5035311;28;20099;-48
2021/06/01 08:42:44;;;;;;;9.00;4.38;;;;;;;19.08;38.98;101703.78;5049674;28;20045;-49
2021/06/01 08:45:13;;;;;;;9.18;4.22;;;;;;;19.11;39.53;101705.94;5045538;28;20045;-49
2021/06/01 08:47:41;;;;;;;8.30;3.70;;;;;;;19.15;39.29;101698.69;5052342;28;20122;-49
2021/06/01 08:50:11;;;;;;;9.90;3.90;;;;;;;19.22;39.12;101697.44;5050988;28;20037;-50
2021/06/01 08:52:39;;;;;;;9.05;4.20;;;;;;;19.26;38.71;101684.69;5052385;28;20188;-50
2021/06/01 08:55:09;;;;;;;9.07;4.10;;;;;;;19.27;39.12;101686.34;5053000;28;20408;-50
2021/06/01 08:57:38;;;;;;;8.18;3.90;;;;;;;19.37;38.77;101688.88;5052672;28;20057;-48
2021/06/01 09:00:09;;;;;;;7.28;3.75;;;;;;;19.41;37.56;101684.41;5050359;28;20095;-48
2021/06/01 09:02:37;;;;;;;8.70;4.03;;;;;;;19.42;37.99;101683.25;5050973;28;20500;-49
2021/06/01 09:05:08;;;;;;;7.22;3.90;;;;;;;19.50;38.04;101681.72;5049720;28;20514;-51
2021/06/01 09:07:54;;;;;;;8.25;3.90;;;;;;;19.67;37.42;101679.13;5051416;28;20045;-50
2021/06/01 09:10:39;;;;;;;11.43;3.55;;;;;;;19.69;36.62;101679.69;5035947;28;20049;-49
2021/06/01 09:21:50;;;;;;;5.38;3.00;;;;;;;19.80;34.74;101669.25;5051923;28;20052;-50
2021/06/01 09:24:18;;;;;;;4.93;3.13;;;;;;;19.83;34.84;101671.38;5052337;28;20037;-50
2021/06/01 09:29:33;;;;;;;5.57;3.17;;;;;;;19.94;35.58;101674.72;5052483;28;20041;-48
2021/06/01 09:32:05;;;;;;;10.05;3.67;;;;;;;19.98;35.13;101676.56;5052530;28;20483;-50
2021/06/01 09:34:46;;;;;;;7.18;3.22;;;;;;;20.04;34.20;101668.97;5038448;28;20544;-51
2021/06/01 09:37:27;;;;;;;8.38;3.20;;;;;;;20.04;33.80;101670.94;5047065;28;20045;-49
2021/06/01 09:40:14;;;;;;;8.15;3.35;;;;;;;20.06;34.11;101666.72;5051758;28;20053;-50
2021/06/01 09:42:44;;;;;;;8.82;3.22;;;;;;;20.14;34.04;101665.16;5052372;28;20059;-52
2021/06/01 09:45:16;;;;;;;5.13;2.80;;;;;;;20.27;33.96;101667.03;5052453;28;20049;-53
2021/06/01 09:47:48;;;;;;;7.22;3.30;;;;;;;20.33;33.78;101665.81;5052662;28;20106;-53
2021/06/01 09:50:36;;;;;;;7.40;3.20;;;;;;;20.41;33.99;101651.19;5053479;28;20154;-53
2021/06/01 09:53:18;;;;;;;7.22;3.08;;;;;;;20.39;35.15;101652.66;5071289;28;20094;-52
2021/06/01 09:55:47;;;;;;;5.93;2.60;;;;;;;20.36;31.15;101659.63;5070720;28;20402;-48
2021/06/01 09:58:25;;;;;;;7.07;3.05;;;;;;;20.36;32.83;101648.56;5071465;28;20052;-53
2021/06/01 10:00:54;;;;;;;6.38;3.00;;;;;;;20.40;32.66;101648.78;5071794;28;20052;-49
2021/06/01 10:03:25;;;;;;;6.75;2.75;;;;;;;20.49;32.31;101657.13;5072109;28;20040;-51
2021/06/01 10:05:55;;;;;;;8.13;2.72;;;;;;;20.48;32.23;101642.47;5071557;28;20491;-49
2021/06/01 10:08:25;;;;;;;6.32;3.20;;;;;;;20.51;33.30;101638.25;5070206;28;20044;-49
2021/06/01 10:10:55;;;;;;;11.55;3.15;;;;;;;20.58;32.33;101636.69;5071815;28;20037;-50
2021/06/01 10:13:28;;;;;;;5.57;3.10;;;;;;;20.62;32.65;101634.94;5071783;28;20502;-49
2021/06/01 10:15:58;;;;;;;11.23;3.58;;;;;;;20.66;32.37;101628.75;5071482;28;20380;-53
2021/06/01 10:18:29;;;;;;;7.00;3.00;;;;;;;20.69;32.96;101628.94;5071577;28;20040;-48
2021/06/01 10:21:01;;;;;;;6.82;3.05;;;;;;;20.74;31.59;101623.28;5038626;28;20427;-50
2021/06/01 10:23:33;;;;;;;6.28;2.90;;;;;;;20.75;31.64;101624.91;5051913;28;20041;-51
2021/06/01 10:26:02;;;;;;;4.18;2.70;;;;;;;20.77;33.10;101622.63;5051391;28;20500;-49
2021/06/01 10:28:33;;;;;;;3.97;2.60;;;;;;;20.84;33.84;101623.00;5051742;28;20412;-52
2021/06/01 10:31:02;;;;;;;5.70;2.90;;;;;;;20.82;36.68;101616.94;5051557;28;20032;-51
2021/06/01 10:33:43;;;;;;;4.80;2.58;;;;;;;20.89;33.87;101616.50;5051933;28;20037;-51
2021/06/01 10:50:23;;;;;;;6.97;2.53;;;;;;;21.15;30.75;101607.50;5050903;28;20044;-50
2021/06/01 10:53:19;;;;;;;10.60;3.58;;;;;;;21.16;40.17;101601.59;5050419;28;20049;-49
2021/06/01 10:55:55;;;;;;;5.45;2.78;;;;;;;21.12;32.04;101602.56;5051089;28;20045;-51
2021/06/01 10:58:31;;;;;;;8.82;2.80;;;;;;;21.22;30.85;101599.53;5049691;28;20163;-47
2021/06/01 11:04:07;;;;;;;4.63;2.38;;;;;;;21.31;31.69;101591.22;5043178;28;20041;-51
2021/06/01 11:09:40;;;;;;;12.85;3.35;;;;;;;21.51;29.98;101590.66;5044827;28;20060;-49
2021/06/01 11:12:15;;;;;;;6.47;3.05;;;;;;;21.46;31.95;101585.28;5056338;28;20446;-51
2021/06/01 11:14:47;;;;;;;7.65;3.00;;;;;;;21.46;30.27;101582.50;5054393;28;20060;-48
2021/06/01 11:17:31;;;;;;;3.85;2.40;;;;;;;21.48;30.94;101583.00;5054304;28;20045;-51
2021/06/01 11:20:08;;;;;;;4.93;2.55;;;;;;;21.47;30.87;101579.38;5054422;28;20483;-50
2021/06/01 11:22:59;;;;;;;7.00;2.58;;;;;;;21.52;32.28;101581.19;5054682;28;20045;-49
2021/06/01 11:33:38;;;;;;;5.35;2.58;;;;;;;21.62;29.99;101567.03;5054314;28;20045;-49
2021/06/01 11:36:10;;;;;;;8.38;2.72;;;;;;;21.65;29.93;101566.38;5054414;28;20445;-50
2021/06/01 11:43:36;;;;;;;6.13;2.90;;;;;;;21.74;30.40;101557.22;5054187;28;20045;-50
2021/06/01 11:46:08;;;;;;;6.45;2.78;;;;;;;21.76;28.45;101560.50;5054273;28;20061;-50
2021/06/01 11:51:21;;;;;;;5.30;2.65;;;;;;;21.83;31.14;101560.81;5054099;28;20060;-53
2021/06/01 11:53:55;;;;;;;4.07;2.65;;;;;;;21.91;31.63;101557.22;5054368;28;20106;-51
2021/06/01 11:56:33;;;;;;;5.70;2.60;;;;;;;22.01;30.00;101548.56;5053789;28;20491;-49
2021/06/01 12:02:10;;;;;;;7.20;2.88;;;;;;;22.11;30.37;101539.91;5052979;28;20044;-50
2021/06/01 12:04:52;;;;;;;7.50;2.53;;;;;;;22.04;29.83;101536.81;5053338;28;20048;-52
2021/06/01 12:18:39;;;;;;;5.07;2.80;;;;;;;22.18;31.27;101538.59;5011314;28;20149;-50
2021/06/01 12:21:21;;;;;;;5.07;2.60;;;;;;;22.28;28.55;101527.97;5011744;28;20092;-52
2021/06/01 12:23:58;;;;;;;4.70;2.75;;;;;;;22.33;29.33;101524.22;5011469;28;20209;-49
2021/06/01 12:26:42;;;;;;;7.43;2.97;;;;;;;22.35;30.09;101521.13;5011645;28;20073;-48
2021/06/01 12:32:17;;;;;;;6.32;2.80;;;;;;;22.42;29.55;101513.91;5000546;28;20097;-50
2021/06/01 12:34:57;;;;;;;4.63;2.30;;;;;;;22.42;30.34;101508.34;4994946;28;20073;-49
2021/06/01 12:46:47;;;;;;;6.20;2.70;;;;;;;22.43;30.61;101500.81;4939225;29;20054;-51
2021/06/01 13:46:06;;;;;;;10.40;3.83;;;;;;;22.93;30.77;101448.13;5051778;28;20565;-51
2021/06/01 13:56:25;;;;;;;12.05;4.80;;;;;;;23.06;30.20;101446.25;5051435;28;20395;-50
2021/06/01 13:59:04;;;;;;;;;;;;;;;23.08;31.18;101445.94;5051873;28;20114;-51
2021/06/01 14:15:38;;;;;;;10.82;3.38;;;;;;;23.18;31.27;101420.50;5051804;28;20045;-49
2021/06/01 15:29:44;;;;;;;6.35;3.40;;;;;;;23.78;29.48;101371.03;5051358;28;20103;-50